sensor_id;sensor_type;location;lat;lon;timestamp;pressure;altitude;pressure_sealevel;temperature;humidity
70200;BME280;57587;55.688;37.600;2023-02-13T00:00:32;99740.03;;;-3.81;60.00
70200;BME280;57587;55.688;37.600;2023-02-13T00:03:00;99732.91;;;-3.79;60.33
70200;BME280;57587;55.688;37.600;2023-02-13T00:05:27;99744.13;;;-3.77;60.75
70200;BME280;57587;55.688;37.600;2023-02-13T00:07:54;99733.31;;;-3.71;60.41
70200;BME280;57587;55.688;37.600;2023-02-13T00:10:23;99722.88;;;-3.71;60.58
70200;BME280;57587;55.688;37.600;2023-02-13T00:12:50;99718.94;;;-3.63;60.06
70200;BME280;57587;55.688;37.600;2023-02-13T00:15:17;99726.34;;;-3.56;60.33
70200;BME280;57587;55.688;37.600;2023-02-13T00:17:44;99712.06;;;-3.50;60.45
70200;BME280;57587;55.688;37.600;2023-02-13T00:20:12;99709.44;;;-3.50;60.15
70200;BME280;57587;55.688;37.600;2023-02-13T00:22:39;99704.03;;;-3.47;59.49
70200;BME280;57587;55.688;37.600;2023-02-13T00:25:06;99703.28;;;-3.35;59.15
70200;BME280;57587;55.688;37.600;2023-02-13T00:27:34;99696.00;;;-3.30;58.97
70200;BME280;57587;55.688;37.600;2023-02-13T00:30:02;99699.38;;;-3.28;58.90
70200;BME280;57587;55.688;37.600;2023-02-13T00:32:31;99690.41;;;-3.23;59.56
70200;BME280;57587;55.688;37.600;2023-02-13T00:34:58;99695.25;;;-3.17;59.26
70200;BME280;57587;55.688;37.600;2023-02-13T00:37:25;99686.28;;;-3.13;58.96
70200;BME280;57587;55.688;37.600;2023-02-13T00:39:52;99684.03;;;-3.05;59.17
70200;BME280;57587;55.688;37.600;2023-02-13T00:42:19;99670.66;;;-3.01;58.89
70200;BME280;57587;55.688;37.600;2023-02-13T00:44:50;99662.41;;;-2.94;58.68
70200;BME280;57587;55.688;37.600;2023-02-13T00:47:17;99672.22;;;-2.84;58.59
70200;BME280;57587;55.688;37.600;2023-02-13T00:49:45;99662.50;;;-2.82;58.05
70200;BME280;57587;55.688;37.600;2023-02-13T00:52:12;99659.50;;;-2.75;57.96
70200;BME280;57587;55.688;37.600;2023-02-13T00:54:39;99650.31;;;-2.68;57.85
70200;BME280;57587;55.688;37.600;2023-02-13T00:57:06;99648.03;;;-2.60;57.43
70200;BME280;57587;55.688;37.600;2023-02-13T00:59:33;99647.81;;;-2.57;56.98
70200;BME280;57587;55.688;37.600;2023-02-13T01:02:00;99649.34;;;-2.53;56.93
70200;BME280;57587;55.688;37.600;2023-02-13T01:04:28;99646.50;;;-2.50;56.91
70200;BME280;57587;55.688;37.600;2023-02-13T01:06:56;99644.94;;;-2.52;57.40
70200;BME280;57587;55.688;37.600;2023-02-13T01:09:23;99648.19;;;-2.49;57.70
70200;BME280;57587;55.688;37.600;2023-02-13T01:11:51;99644.41;;;-2.45;57.21
70200;BME280;57587;55.688;37.600;2023-02-13T01:14:18;99651.44;;;-2.45;56.95
70200;BME280;57587;55.688;37.600;2023-02-13T01:16:47;99638.91;;;-2.40;57.52
70200;BME280;57587;55.688;37.600;2023-02-13T01:19:15;99629.88;;;-2.36;56.47
70200;BME280;57587;55.688;37.600;2023-02-13T01:21:42;99632.41;;;-2.35;56.30
70200;BME280;57587;55.688;37.600;2023-02-13T01:24:10;99636.91;;;-2.37;56.22
70200;BME280;57587;55.688;37.600;2023-02-13T01:26:37;99632.63;;;-2.38;56.34
70200;BME280;57587;55.688;37.600;2023-02-13T01:29:05;99626.34;;;-2.35;56.44
70200;BME280;57587;55.688;37.600;2023-02-13T01:31:32;99621.63;;;-2.30;55.81
70200;BME280;57587;55.688;37.600;2023-02-13T01:33:59;99618.16;;;-2.30;56.50
70200;BME280;57587;55.688;37.600;2023-02-13T01:36:27;99612.72;;;-2.27;56.34
70200;BME280;57587;55.688;37.600;2023-02-13T01:38:56;99608.84;;;-2.35;55.70
70200;BME280;57587;55.688;37.600;2023-02-13T01:41:25;99602.44;;;-2.30;56.46
70200;BME280;57587;55.688;37.600;2023-02-13T01:43:54;99596.72;;;-2.23;55.99
70200;BME280;57587;55.688;37.600;2023-02-13T01:48:54;99589.75;;;-2.24;55.92
70200;BME280;57587;55.688;37.600;2023-02-13T01:51:26;99583.06;;;-2.15;55.89
70200;BME280;57587;55.688;37.600;2023-02-13T01:53:59;99587.50;;;-2.03;55.10
70200;BME280;57587;55.688;37.600;2023-02-13T01:56:33;99578.38;;;-2.10;55.84
70200;BME280;57587;55.688;37.600;2023-02-13T01:59:13;99573.63;;;-2.05;55.12
70200;BME280;57587;55.688;37.600;2023-02-13T02:01:41;99574.59;;;-2.06;55.71
70200;BME280;57587;55.688;37.600;2023-02-13T02:04:12;99567.06;;;-2.11;54.62
70200;BME280;57587;55.688;37.600;2023-02-13T02:06:43;99554.16;;;-2.14;54.49
70200;BME280;57587;55.688;37.600;2023-02-13T02:09:24;99553.91;;;-2.23;55.30
70200;BME280;57587;55.688;37.600;2023-02-13T02:11:58;99551.06;;;-2.20;55.18
70200;BME280;57587;55.688;37.600;2023-02-13T02:14:27;99545.84;;;-2.20;54.72
70200;BME280;57587;55.688;37.600;2023-02-13T02:16:56;99550.66;;;-2.14;54.47
70200;BME280;57587;55.688;37.600;2023-02-13T02:19:53;99551.81;;;-2.18;55.99
70200;BME280;57587;55.688;37.600;2023-02-13T02:39:46;99512.50;;;-2.18;55.94
70200;BME280;57587;55.688;37.600;2023-02-13T02:47:58;99500.97;;;-2.28;56.21
70200;BME280;57587;55.688;37.600;2023-02-13T02:51:07;99494.03;;;-2.29;56.08
70200;BME280;57587;55.688;37.600;2023-02-13T02:56:21;99484.41;;;-2.16;56.12
70200;BME280;57587;55.688;37.600;2023-02-13T02:59:05;99484.41;;;-2.16;55.94
70200;BME280;57587;55.688;37.600;2023-02-13T03:01:53;99487.13;;;-2.18;56.07
70200;BME280;57587;55.688;37.600;2023-02-13T03:04:43;99481.13;;;-2.33;57.18
70200;BME280;57587;55.688;37.600;2023-02-13T03:07:30;99480.50;;;-2.23;56.79
70200;BME280;57587;55.688;37.600;2023-02-13T03:10:04;99476.09;;;-2.36;57.22
70200;BME280;57587;55.688;37.600;2023-02-13T03:13:43;99471.31;;;-2.29;57.13
70200;BME280;57587;55.688;37.600;2023-02-13T03:16:15;99467.94;;;-2.18;56.64
70200;BME280;57587;55.688;37.600;2023-02-13T03:19:03;99467.44;;;-2.11;57.27
70200;BME280;57587;55.688;37.600;2023-02-13T03:21:58;99469.59;;;-2.17;56.88
70200;BME280;57587;55.688;37.600;2023-02-13T03:24:56;99460.09;;;-2.18;57.31
70200;BME280;57587;55.688;37.600;2023-02-13T03:27:40;99460.09;;;-2.18;57.67
70200;BME280;57587;55.688;37.600;2023-02-13T03:36:04;99443.53;;;-2.19;58.17
70200;BME280;57587;55.688;37.600;2023-02-13T03:46:43;99404.69;;;-2.01;57.78
70200;BME280;57587;55.688;37.600;2023-02-13T03:54:59;99406.91;;;-1.95;58.65
70200;BME280;57587;55.688;37.600;2023-02-13T03:57:48;99401.66;;;-1.95;57.79
70200;BME280;57587;55.688;37.600;2023-02-13T04:00:41;99403.75;;;-2.00;58.47
70200;BME280;57587;55.688;37.600;2023-02-13T04:03:13;99411.72;;;-2.01;58.74
70200;BME280;57587;55.688;37.600;2023-02-13T04:05:47;99407.53;;;-2.04;58.98
70200;BME280;57587;55.688;37.600;2023-02-13T04:08:16;99409.81;;;-1.99;59.03
70200;BME280;57587;55.688;37.600;2023-02-13T04:11:13;99402.38;;;-2.05;59.78
70200;BME280;57587;55.688;37.600;2023-02-13T04:13:44;99393.34;;;-1.89;59.11
70200;BME280;57587;55.688;37.600;2023-02-13T04:16:21;99384.09;;;-1.81;59.18
70200;BME280;57587;55.688;37.600;2023-02-13T04:18:51;99387.44;;;-1.79;58.90
70200;BME280;57587;55.688;37.600;2023-02-13T04:21:19;99378.00;;;-1.82;58.86
70200;BME280;57587;55.688;37.600;2023-02-13T04:23:46;99374.44;;;-1.81;58.90
70200;BME280;57587;55.688;37.600;2023-02-13T04:26:16;99365.59;;;-1.80;58.75
70200;BME280;57587;55.688;37.600;2023-02-13T04:28:44;99370.84;;;-1.80;59.19
70200;BME280;57587;55.688;37.600;2023-02-13T04:31:11;99350.50;;;-1.76;59.68
70200;BME280;57587;55.688;37.600;2023-02-13T04:33:39;99355.00;;;-1.78;59.60
70200;BME280;57587;55.688;37.600;2023-02-13T04:36:06;99343.56;;;-1.77;60.43
70200;BME280;57587;55.688;37.600;2023-02-13T04:38:33;99341.47;;;-1.72;60.42
70200;BME280;57587;55.688;37.600;2023-02-13T04:41:00;99344.09;;;-1.72;60.57
70200;BME280;57587;55.688;37.600;2023-02-13T04:43:27;99334.31;;;-1.70;60.71
70200;BME280;57587;55.688;37.600;2023-02-13T04:45:54;99339.88;;;-1.75;60.12
70200;BME280;57587;55.688;37.600;2023-02-13T04:48:21;99330.81;;;-1.82;60.82
70200;BME280;57587;55.688;37.600;2023-02-13T04:50:48;99325.19;;;-1.77;60.69
70200;BME280;57587;55.688;37.600;2023-02-13T04:53:16;99326.84;;;-1.88;60.83
70200;BME280;57587;55.688;37.600;2023-02-13T04:55:43;99322.31;;;-1.86;61.01
70200;BME280;57587;55.688;37.600;2023-02-13T04:58:10;99322.25;;;-1.97;61.00
70200;BME280;57587;55.688;37.600;2023-02-13T05:00:37;99313.19;;;-1.93;60.92
70200;BME280;57587;55.688;37.600;2023-02-13T05:03:05;99310.88;;;-1.84;61.07
70200;BME280;57587;55.688;37.600;2023-02-13T05:05:34;99304.22;;;-1.77;60.15
70200;BME280;57587;55.688;37.600;2023-02-13T05:08:01;99293.41;;;-1.73;60.11
70200;BME280;57587;55.688;37.600;2023-02-13T05:10:29;99290.44;;;-1.68;60.02
70200;BME280;57587;55.688;37.600;2023-02-13T05:12:57;99288.94;;;-1.59;59.88
70200;BME280;57587;55.688;37.600;2023-02-13T05:15:24;99275.81;;;-1.59;59.34
70200;BME280;57587;55.688;37.600;2023-02-13T05:17:52;99270.28;;;-1.68;59.71
70200;BME280;57587;55.688;37.600;2023-02-13T05:20:20;99261.78;;;-1.82;60.33
70200;BME280;57587;55.688;37.600;2023-02-13T05:22:49;99265.72;;;-1.77;60.57
70200;BME280;57587;55.688;37.600;2023-02-13T05:25:37;99278.59;;;-1.74;60.21
70200;BME280;57587;55.688;37.600;2023-02-13T05:28:05;99286.91;;;-1.80;60.58
70200;BME280;57587;55.688;37.600;2023-02-13T05:30:53;99273.19;;;-1.83;60.48
70200;BME280;57587;55.688;37.600;2023-02-13T05:33:20;99273.94;;;-1.81;60.51
70200;BME280;57587;55.688;37.600;2023-02-13T05:35:47;99272.75;;;-1.77;60.65
70200;BME280;57587;55.688;37.600;2023-02-13T05:38:14;99276.63;;;-1.70;59.75
70200;BME280;57587;55.688;37.600;2023-02-13T05:40:41;99263.97;;;-1.65;60.18
70200;BME280;57587;55.688;37.600;2023-02-13T05:43:08;99267.56;;;-1.66;60.01
70200;BME280;57587;55.688;37.600;2023-02-13T05:45:36;99258.72;;;-1.65;60.17
70200;BME280;57587;55.688;37.600;2023-02-13T05:48:03;99263.28;;;-1.67;59.58
70200;BME280;57587;55.688;37.600;2023-02-13T05:50:30;99268.38;;;-1.66;60.28
70200;BME280;57587;55.688;37.600;2023-02-13T05:52:57;99273.09;;;-1.58;60.05
70200;BME280;57587;55.688;37.600;2023-02-13T05:55:24;99279.78;;;-1.54;60.51
70200;BME280;57587;55.688;37.600;2023-02-13T05:57:55;99274.38;;;-1.52;60.35
70200;BME280;57587;55.688;37.600;2023-02-13T06:00:22;99271.66;;;-1.51;60.04
70200;BME280;57587;55.688;37.600;2023-02-13T06:02:49;99264.25;;;-1.46;59.90
70200;BME280;57587;55.688;37.600;2023-02-13T06:05:16;99276.97;;;-1.28;59.85
70200;BME280;57587;55.688;37.600;2023-02-13T06:07:43;99271.25;;;-1.22;59.40
70200;BME280;57587;55.688;37.600;2023-02-13T06:10:10;99283.19;;;-1.18;59.57
70200;BME280;57587;55.688;37.600;2023-02-13T06:12:38;99282.34;;;-1.19;59.09
70200;BME280;57587;55.688;37.600;2023-02-13T06:15:06;99258.75;;;-1.07;58.71
70200;BME280;57587;55.688;37.600;2023-02-13T06:17:33;99264.13;;;-0.98;58.51
70200;BME280;57587;55.688;37.600;2023-02-13T06:20:00;99271.53;;;-0.91;58.32
70200;BME280;57587;55.688;37.600;2023-02-13T06:22:29;99260.91;;;-1.01;58.59
70200;BME280;57587;55.688;37.600;2023-02-13T06:24:56;99271.66;;;-0.93;58.98
70200;BME280;57587;55.688;37.600;2023-02-13T06:27:23;99262.47;;;-0.87;59.08
70200;BME280;57587;55.688;37.600;2023-02-13T06:29:50;99266.31;;;-0.80;58.52
70200;BME280;57587;55.688;37.600;2023-02-13T06:32:17;99269.53;;;-0.77;58.41
70200;BME280;57587;55.688;37.600;2023-02-13T06:34:44;99263.19;;;-0.74;58.42
70200;BME280;57587;55.688;37.600;2023-02-13T06:37:11;99259.38;;;-0.70;58.59
70200;BME280;57587;55.688;37.600;2023-02-13T06:39:38;99249.09;;;-0.62;58.66
70200;BME280;57587;55.688;37.600;2023-02-13T06:42:05;99250.38;;;-0.56;58.28
70200;BME280;57587;55.688;37.600;2023-02-13T06:44:32;99237.00;;;-0.53;58.62
70200;BME280;57587;55.688;37.600;2023-02-13T06:46:59;99233.69;;;-0.55;58.02
70200;BME280;57587;55.688;37.600;2023-02-13T06:49:26;99223.53;;;-0.49;58.41
70200;BME280;57587;55.688;37.600;2023-02-13T06:51:53;99219.59;;;-0.54;57.62
70200;BME280;57587;55.688;37.600;2023-02-13T06:54:20;99226.00;;;-0.47;58.38
70200;BME280;57587;55.688;37.600;2023-02-13T06:57:02;99224.69;;;-0.30;56.95
70200;BME280;57587;55.688;37.600;2023-02-13T06:59:29;99224.78;;;-0.20;57.45
70200;BME280;57587;55.688;37.600;2023-02-13T07:01:57;99226.69;;;-0.22;57.61
70200;BME280;57587;55.688;37.600;2023-02-13T07:04:24;99211.97;;;-0.25;56.53
70200;BME280;57587;55.688;37.600;2023-02-13T07:06:54;99216.41;;;-0.26;57.29
70200;BME280;57587;55.688;37.600;2023-02-13T07:09:24;99211.53;;;-0.30;57.61
70200;BME280;57587;55.688;37.600;2023-02-13T07:11:51;99211.78;;;-0.33;57.70
70200;BME280;57587;55.688;37.600;2023-02-13T07:14:18;99203.31;;;-0.37;57.94
70200;BME280;57587;55.688;37.600;2023-02-13T07:16:45;99211.78;;;-0.33;57.93
70200;BME280;57587;55.688;37.600;2023-02-13T07:19:12;99207.09;;;-0.30;57.72
70200;BME280;57587;55.688;37.600;2023-02-13T07:21:40;99197.41;;;-0.29;58.32
70200;BME280;57587;55.688;37.600;2023-02-13T07:24:07;99193.31;;;-0.22;58.31
70200;BME280;57587;55.688;37.600;2023-02-13T07:26:34;99190.19;;;-0.16;58.22
70200;BME280;57587;55.688;37.600;2023-02-13T07:29:01;99179.75;;;-0.27;58.29
70200;BME280;57587;55.688;37.600;2023-02-13T07:31:37;99179.19;;;-0.10;58.60
70200;BME280;57587;55.688;37.600;2023-02-13T07:34:06;99173.63;;;0.05;58.12
70200;BME280;57587;55.688;37.600;2023-02-13T07:36:33;99186.75;;;0.16;58.14
70200;BME280;57587;55.688;37.600;2023-02-13T07:39:00;99174.47;;;0.26;57.75
70200;BME280;57587;55.688;37.600;2023-02-13T07:41:27;99181.22;;;0.19;57.27
70200;BME280;57587;55.688;37.600;2023-02-13T07:43:54;99168.06;;;0.19;57.85
70200;BME280;57587;55.688;37.600;2023-02-13T07:46:21;99166.88;;;0.12;57.79
70200;BME280;57587;55.688;37.600;2023-02-13T07:48:51;99173.34;;;0.19;57.73
70200;BME280;57587;55.688;37.600;2023-02-13T07:51:18;99170.44;;;0.22;57.92
70200;BME280;57587;55.688;37.600;2023-02-13T07:53:45;99161.59;;;0.23;57.59
70200;BME280;57587;55.688;37.600;2023-02-13T07:56:12;99157.97;;;0.24;58.32
70200;BME280;57587;55.688;37.600;2023-02-13T07:58:39;99177.13;;;0.26;58.28
70200;BME280;57587;55.688;37.600;2023-02-13T08:01:08;99164.94;;;0.25;58.70
70200;BME280;57587;55.688;37.600;2023-02-13T08:03:36;99166.44;;;0.28;58.25
70200;BME280;57587;55.688;37.600;2023-02-13T08:06:04;99170.38;;;0.33;59.17
70200;BME280;57587;55.688;37.600;2023-02-13T08:08:31;99174.16;;;0.40;58.84
70200;BME280;57587;55.688;37.600;2023-02-13T08:11:04;99163.56;;;0.52;58.79
70200;BME280;57587;55.688;37.600;2023-02-13T08:13:51;99157.31;;;0.53;59.16
70200;BME280;57587;55.688;37.600;2023-02-13T08:16:18;99160.28;;;0.59;58.77
70200;BME280;57587;55.688;37.600;2023-02-13T08:18:45;99152.13;;;0.62;58.98
70200;BME280;57587;55.688;37.600;2023-02-13T08:21:12;99152.44;;;0.69;58.98
70200;BME280;57587;55.688;37.600;2023-02-13T08:23:41;99137.78;;;0.76;58.81
70200;BME280;57587;55.688;37.600;2023-02-13T08:26:08;99123.97;;;0.84;58.88
70200;BME280;57587;55.688;37.600;2023-02-13T08:28:35;99121.19;;;0.85;58.77
70200;BME280;57587;55.688;37.600;2023-02-13T08:31:09;99116.88;;;0.84;59.10
70200;BME280;57587;55.688;37.600;2023-02-13T08:33:37;99112.56;;;0.83;59.00
70200;BME280;57587;55.688;37.600;2023-02-13T08:36:07;99112.88;;;0.90;58.95
70200;BME280;57587;55.688;37.600;2023-02-13T08:38:34;99103.19;;;0.90;58.70
70200;BME280;57587;55.688;37.600;2023-02-13T08:41:01;99103.59;;;0.96;59.35
70200;BME280;57587;55.688;37.600;2023-02-13T08:43:28;99107.91;;;0.97;59.14
70200;BME280;57587;55.688;37.600;2023-02-13T08:45:59;99104.59;;;1.04;59.37
70200;BME280;57587;55.688;37.600;2023-02-13T08:48:28;99097.97;;;1.10;58.89
70200;BME280;57587;55.688;37.600;2023-02-13T08:50:55;99101.56;;;1.09;59.23
70200;BME280;57587;55.688;37.600;2023-02-13T08:53:22;99092.53;;;1.11;59.56
70200;BME280;57587;55.688;37.600;2023-02-13T08:55:56;99093.25;;;1.13;59.16
70200;BME280;57587;55.688;37.600;2023-02-13T08:58:24;99090.50;;;1.15;59.82
70200;BME280;57587;55.688;37.600;2023-02-13T09:00:51;99090.50;;;1.25;59.32
70200;BME280;57587;55.688;37.600;2023-02-13T09:03:19;99089.41;;;1.27;59.33
70200;BME280;57587;55.688;37.600;2023-02-13T09:05:46;99084.69;;;1.41;59.09
70200;BME280;57587;55.688;37.600;2023-02-13T09:08:13;99090.81;;;1.51;59.04
70200;BME280;57587;55.688;37.600;2023-02-13T09:10:42;99084.97;;;1.57;59.11
70200;BME280;57587;55.688;37.600;2023-02-13T09:13:12;99086.06;;;1.54;58.66
70200;BME280;57587;55.688;37.600;2023-02-13T09:15:39;99079.16;;;1.53;59.53
70200;BME280;57587;55.688;37.600;2023-02-13T09:18:07;99080.41;;;1.69;59.96
70200;BME280;57587;55.688;37.600;2023-02-13T09:20:34;99079.28;;;1.71;59.78
70200;BME280;57587;55.688;37.600;2023-02-13T09:23:02;99069.31;;;1.65;60.15
70200;BME280;57587;55.688;37.600;2023-02-13T09:25:29;99072.78;;;1.66;60.28
70200;BME280;57587;55.688;37.600;2023-02-13T09:27:58;99069.56;;;1.72;60.35
70200;BME280;57587;55.688;37.600;2023-02-13T09:30:25;99063.31;;;1.73;59.71
70200;BME280;57587;55.688;37.600;2023-02-13T09:32:53;99051.09;;;1.81;60.63
70200;BME280;57587;55.688;37.600;2023-02-13T09:35:21;99045.69;;;1.73;60.43
70200;BME280;57587;55.688;37.600;2023-02-13T09:37:49;99038.75;;;1.72;60.85
70200;BME280;57587;55.688;37.600;2023-02-13T09:40:20;99030.97;;;1.80;60.26
70200;BME280;57587;55.688;37.600;2023-02-13T09:42:50;99029.69;;;1.94;60.60
70200;BME280;57587;55.688;37.600;2023-02-13T09:45:20;99030.38;;;2.06;60.49
70200;BME280;57587;55.688;37.600;2023-02-13T09:47:49;99017.00;;;2.17;60.35
70200;BME280;57587;55.688;37.600;2023-02-13T09:50:29;99007.81;;;2.21;60.28
70200;BME280;57587;55.688;37.600;2023-02-13T09:52:58;99007.38;;;2.36;59.54
70200;BME280;57587;55.688;37.600;2023-02-13T09:55:35;98998.13;;;2.49;59.99
70200;BME280;57587;55.688;37.600;2023-02-13T09:58:45;99003.63;;;2.56;59.24
70200;BME280;57587;55.688;37.600;2023-02-13T10:01:22;99003.06;;;2.62;59.53
70200;BME280;57587;55.688;37.600;2023-02-13T10:03:56;98998.00;;;2.69;58.67
70200;BME280;57587;55.688;37.600;2023-02-13T10:06:32;98992.59;;;2.70;58.75
70200;BME280;57587;55.688;37.600;2023-02-13T10:09:15;98991.59;;;2.71;59.14
70200;BME280;57587;55.688;37.600;2023-02-13T10:14:59;98984.75;;;2.78;58.89
70200;BME280;57587;55.688;37.600;2023-02-13T10:17:37;98981.97;;;2.80;58.70
70200;BME280;57587;55.688;37.600;2023-02-13T10:20:29;98979.31;;;2.80;58.17
70200;BME280;57587;55.688;37.600;2023-02-13T10:25:43;98974.63;;;2.74;58.29
70200;BME280;57587;55.688;37.600;2023-02-13T10:28:16;98978.97;;;2.65;58.81
70200;BME280;57587;55.688;37.600;2023-02-13T10:30:54;98985.56;;;2.61;58.79
70200;BME280;57587;55.688;37.600;2023-02-13T10:33:29;98987.03;;;2.46;59.27
70200;BME280;57587;55.688;37.600;2023-02-13T10:38:33;98983.78;;;2.52;59.29
70200;BME280;57587;55.688;37.600;2023-02-13T10:55:20;98944.09;;;3.07;58.45
70200;BME280;57587;55.688;37.600;2023-02-13T10:58:08;98941.88;;;3.03;58.40
70200;BME280;57587;55.688;37.600;2023-02-13T11:03:25;98929.44;;;2.95;59.26
70200;BME280;57587;55.688;37.600;2023-02-13T11:05:54;98924.16;;;2.95;59.61
70200;BME280;57587;55.688;37.600;2023-02-13T11:08:30;98911.38;;;2.90;59.36
70200;BME280;57587;55.688;37.600;2023-02-13T11:10:59;98908.22;;;2.87;60.00
70200;BME280;57587;55.688;37.600;2023-02-13T11:13:28;98912.91;;;2.93;61.04
70200;BME280;57587;55.688;37.600;2023-02-13T11:16:01;98907.09;;;3.07;61.05
70200;BME280;57587;55.688;37.600;2023-02-13T11:18:31;98899.72;;;3.19;60.46
70200;BME280;57587;55.688;37.600;2023-02-13T11:21:21;98898.91;;;3.18;59.29
70200;BME280;57587;55.688;37.600;2023-02-13T11:23:52;98897.25;;;3.17;59.48
70200;BME280;57587;55.688;37.600;2023-02-13T11:26:31;98906.09;;;3.26;59.12
70200;BME280;57587;55.688;37.600;2023-02-13T11:29:03;98905.78;;;3.29;58.81
70200;BME280;57587;55.688;37.600;2023-02-13T11:31:35;98896.09;;;3.38;58.74
70200;BME280;57587;55.688;37.600;2023-02-13T11:34:26;98897.75;;;3.39;58.68
70200;BME280;57587;55.688;37.600;2023-02-13T11:39:40;98889.22;;;3.27;59.08
70200;BME280;57587;55.688;37.600;2023-02-13T11:42:32;98893.06;;;3.33;59.14
70200;BME280;57587;55.688;37.600;2023-02-13T11:45:04;98883.19;;;3.35;59.06
70200;BME280;57587;55.688;37.600;2023-02-13T11:47:40;98870.63;;;3.37;59.25
70200;BME280;57587;55.688;37.600;2023-02-13T11:50:50;98872.06;;;3.31;59.10
70200;BME280;57587;55.688;37.600;2023-02-13T11:53:23;98857.44;;;3.19;59.52
70200;BME280;57587;55.688;37.600;2023-02-13T11:56:25;98865.84;;;3.14;59.86
70200;BME280;57587;55.688;37.600;2023-02-13T11:59:00;98840.03;;;3.08;60.17
70200;BME280;57587;55.688;37.600;2023-02-13T12:01:28;98850.06;;;3.05;60.32
70200;BME280;57587;55.688;37.600;2023-02-13T12:03:59;98845.91;;;3.02;60.63
70200;BME280;57587;55.688;37.600;2023-02-13T12:06:27;98845.38;;;3.16;60.46
70200;BME280;57587;55.688;37.600;2023-02-13T12:08:55;98842.03;;;3.14;60.10
70200;BME280;57587;55.688;37.600;2023-02-13T12:11:45;98841.19;;;3.32;59.98
70200;BME280;57587;55.688;37.600;2023-02-13T12:14:23;98835.94;;;3.40;59.83
70200;BME280;57587;55.688;37.600;2023-02-13T12:16:59;98824.69;;;3.38;59.63
70200;BME280;57587;55.688;37.600;2023-02-13T12:19:48;98824.22;;;3.42;59.45
70200;BME280;57587;55.688;37.600;2023-02-13T12:24:53;98825.25;;;3.23;59.80
70200;BME280;57587;55.688;37.600;2023-02-13T12:27:31;98829.84;;;3.21;60.27
70200;BME280;57587;55.688;37.600;2023-02-13T12:45:15;98814.16;;;3.20;60.30
70200;BME280;57587;55.688;37.600;2023-02-13T12:48:30;98818.16;;;3.24;60.73
70200;BME280;57587;55.688;37.600;2023-02-13T12:50:56;98820.69;;;3.34;60.43
70200;BME280;57587;55.688;37.600;2023-02-13T13:01:09;98795.19;;;3.24;60.63
70200;BME280;57587;55.688;37.600;2023-02-13T13:23:21;98778.13;;;3.45;61.82
70200;BME280;57587;55.688;37.600;2023-02-13T13:28:45;98780.38;;;3.32;61.54
70200;BME280;57587;55.688;37.600;2023-02-13T13:31:15;98778.97;;;3.19;61.80
70200;BME280;57587;55.688;37.600;2023-02-13T13:33:44;98774.66;;;3.18;61.71
70200;BME280;57587;55.688;37.600;2023-02-13T13:36:32;98781.88;;;3.08;62.03
70200;BME280;57587;55.688;37.600;2023-02-13T13:39:05;98781.88;;;3.08;61.76
70200;BME280;57587;55.688;37.600;2023-02-13T13:49:53;98767.31;;;3.04;61.95
70200;BME280;57587;55.688;37.600;2023-02-13T13:52:31;98764.63;;;2.96;61.90
70200;BME280;57587;55.688;37.600;2023-02-13T13:55:04;98757.31;;;2.90;62.95
70200;BME280;57587;55.688;37.600;2023-02-13T14:02:45;98750.38;;;2.89;63.91
70200;BME280;57587;55.688;37.600;2023-02-13T14:07:40;98746.31;;;2.76;64.84
70200;BME280;57587;55.688;37.600;2023-02-13T14:13:05;98741.75;;;2.61;65.74
70200;BME280;57587;55.688;37.600;2023-02-13T14:23:47;98721.97;;;2.47;66.37
70200;BME280;57587;55.688;37.600;2023-02-13T14:26:39;98719.22;;;2.48;66.32
70200;BME280;57587;55.688;37.600;2023-02-13T14:31:42;98715.06;;;2.46;66.37
70200;BME280;57587;55.688;37.600;2023-02-13T14:34:19;98694.94;;;2.45;66.32
70200;BME280;57587;55.688;37.600;2023-02-13T14:37:14;98711.91;;;2.42;66.19
70200;BME280;57587;55.688;37.600;2023-02-13T14:45:23;98707.97;;;2.46;66.33
70200;BME280;57587;55.688;37.600;2023-02-13T14:47:54;98710.16;;;2.51;65.83
70200;BME280;57587;55.688;37.600;2023-02-13T14:50:27;98692.50;;;2.51;65.70
70200;BME280;57587;55.688;37.600;2023-02-13T14:52:57;98707.03;;;2.56;65.87
70200;BME280;57587;55.688;37.600;2023-02-13T14:55:30;98698.66;;;2.60;65.90
70200;BME280;57587;55.688;37.600;2023-02-13T15:01:17;98685.81;;;2.65;65.35
70200;BME280;57587;55.688;37.600;2023-02-13T15:03:56;98677.38;;;2.62;65.88
70200;BME280;57587;55.688;37.600;2023-02-13T15:06:31;98674.03;;;2.60;66.04
70200;BME280;57587;55.688;37.600;2023-02-13T15:09:04;98666.63;;;2.63;65.88
70200;BME280;57587;55.688;37.600;2023-02-13T15:11:41;98655.41;;;2.61;65.66
70200;BME280;57587;55.688;37.600;2023-02-13T15:16:44;98641.50;;;2.51;65.89
70200;BME280;57587;55.688;37.600;2023-02-13T15:19:17;98642.84;;;2.55;66.42
70200;BME280;57587;55.688;37.600;2023-02-13T15:21:53;98628.63;;;2.56;66.43
70200;BME280;57587;55.688;37.600;2023-02-13T15:24:22;98617.06;;;2.49;66.42
70200;BME280;57587;55.688;37.600;2023-02-13T15:26:58;98610.75;;;2.42;67.44
70200;BME280;57587;55.688;37.600;2023-02-13T15:29:26;98616.34;;;2.39;67.28
70200;BME280;57587;55.688;37.600;2023-02-13T15:32:17;98607.53;;;2.30;67.84
70200;BME280;57587;55.688;37.600;2023-02-13T15:34:49;98605.84;;;2.29;67.87
70200;BME280;57587;55.688;37.600;2023-02-13T15:37:26;98611.19;;;2.37;67.96
70200;BME280;57587;55.688;37.600;2023-02-13T15:39:53;98607.22;;;2.33;68.17
70200;BME280;57587;55.688;37.600;2023-02-13T15:42:21;98601.84;;;2.43;68.19
70200;BME280;57587;55.688;37.600;2023-02-13T15:44:50;98586.75;;;2.35;67.49
70200;BME280;57587;55.688;37.600;2023-02-13T15:47:26;98581.34;;;2.37;67.84
70200;BME280;57587;55.688;37.600;2023-02-13T15:49:54;98574.41;;;2.36;67.57
70200;BME280;57587;55.688;37.600;2023-02-13T15:52:31;98576.13;;;2.45;67.75
70200;BME280;57587;55.688;37.600;2023-02-13T15:55:00;98582.97;;;2.38;67.86
70200;BME280;57587;55.688;37.600;2023-02-13T15:57:29;98575.94;;;2.46;68.15
70200;BME280;57587;55.688;37.600;2023-02-13T15:59:58;98565.88;;;2.50;68.12
70200;BME280;57587;55.688;37.600;2023-02-13T16:02:39;98562.22;;;2.43;67.91
70200;BME280;57587;55.688;37.600;2023-02-13T16:05:10;98557.63;;;2.45;67.88